This is the latest recevied weather packets stored in our database for station/object SQ6PCH-10. If no packets are shown the sender has not sent any weather packets the latest 10 day(s).
| Time | Temp. | Humidity | Pressure | Rain* | Wind** | Luminosity | Snow |
|---|---|---|---|---|---|---|---|
| 1777891727 | 30.56° C | 18% | 998.2 hPa | - | - | - | - |
| 1777891127 | 32.78° C | 15% | 998.3 hPa | - | - | - | - |
| 1777890527 | 32.78° C | 17% | 998.5 hPa | - | - | - | - |
| 1777889927 | 30.56° C | 19% | 998.5 hPa | - | - | - | - |
| 1777889326 | 28.89° C | 21% | 998.7 hPa | - | - | - | - |
| 1777888726 | 28.89° C | 21% | 998.7 hPa | - | - | - | - |
| 1777888125 | 28.33° C | 21% | 998.7 hPa | - | - | - | - |
| 1777887525 | 29.44° C | 19% | 998.7 hPa | - | - | - | - |
| 1777886925 | 26.67° C | 22% | 998.8 hPa | - | - | - | - |
| 1777886324 | 28.33° C | 21% | 999 hPa | - | - | - | - |
| 1777885724 | 28.33° C | 22% | 998.9 hPa | - | - | - | - |
| 1777885124 | 25.56° C | 25% | 999 hPa | - | - | - | - |
| 1777884524 | 24.44° C | 26% | 999 hPa | - | - | - | - |
| 1777883924 | 25° C | 26% | 999 hPa | - | - | - | - |
| 1777883324 | 25.56° C | 24% | 999 hPa | - | - | - | - |
| 1777882723 | 22.78° C | 28% | 998.9 hPa | - | - | - | - |
| 1777882122 | 23.33° C | 29% | 999 hPa | - | - | - | - |
| 1777881522 | 23.33° C | 29% | 998.9 hPa | - | - | - | - |
| 1777880922 | 22.22° C | 30% | 998.9 hPa | - | - | - | - |
| 1777880322 | 22.78° C | 30% | 998.8 hPa | - | - | - | - |
| 1777879722 | 22.78° C | 30% | 998.9 hPa | - | - | - | - |
| 1777879122 | 21.67° C | 33% | 999 hPa | - | - | - | - |
| 1777878522 | 20° C | 35% | 999 hPa | - | - | - | - |
| 1777877921 | 19.44° C | 38% | 998.8 hPa | - | - | - | - |
| 1777877321 | 18.89° C | 38% | 998.9 hPa | - | - | - | - |
* Rain since midnight (hover to see other rain measurements)
** Current wind speed in m/s (hover to see current wind gust speed)